sensor_id;sensor_type;location;lat;lon;timestamp;pressure;altitude;pressure_sealevel;temperature
71428;BMP280;59246;59.102;37.928;2022-09-09T00:04:03;100878.16;;;5.82
71428;BMP280;59246;59.102;37.928;2022-09-09T00:06:43;100880.78;;;5.82
71428;BMP280;59246;59.102;37.928;2022-09-09T00:09:29;100881.25;;;5.78
71428;BMP280;59246;59.102;37.928;2022-09-09T00:14:59;100886.31;;;5.80
71428;BMP280;59246;59.102;37.928;2022-09-09T00:20:48;100890.00;;;5.72
71428;BMP280;59246;59.102;37.928;2022-09-09T00:29:43;100878.06;;;5.70
71428;BMP280;59246;59.102;37.928;2022-09-09T00:32:30;100883.56;;;5.68
71428;BMP280;59246;59.102;37.928;2022-09-09T00:37:41;100877.50;;;5.68
71428;BMP280;59246;59.102;37.928;2022-09-09T00:40:34;100887.00;;;5.69
71428;BMP280;59246;59.102;37.928;2022-09-09T00:51:23;100903.47;;;5.64
71428;BMP280;59246;59.102;37.928;2022-09-09T00:56:49;100902.31;;;5.53
71428;BMP280;59246;59.102;37.928;2022-09-09T00:59:35;100906.19;;;5.51
71428;BMP280;59246;59.102;37.928;2022-09-09T01:02:31;100914.56;;;5.48
71428;BMP280;59246;59.102;37.928;2022-09-09T01:05:18;100906.47;;;5.43
71428;BMP280;59246;59.102;37.928;2022-09-09T01:08:01;100913.16;;;5.38
71428;BMP280;59246;59.102;37.928;2022-09-09T01:11:27;100914.63;;;5.34
71428;BMP280;59246;59.102;37.928;2022-09-09T01:14:14;100910.63;;;5.32
71428;BMP280;59246;59.102;37.928;2022-09-09T01:16:58;100913.03;;;5.33
71428;BMP280;59246;59.102;37.928;2022-09-09T01:22:30;100914.63;;;5.34
71428;BMP280;59246;59.102;37.928;2022-09-09T01:28:29;100915.38;;;5.41
71428;BMP280;59246;59.102;37.928;2022-09-09T01:31:40;100903.56;;;5.51
71428;BMP280;59246;59.102;37.928;2022-09-09T01:34:50;100918.25;;;5.65
71428;BMP280;59246;59.102;37.928;2022-09-09T01:38:00;100913.28;;;5.75
71428;BMP280;59246;59.102;37.928;2022-09-09T01:41:10;100912.78;;;5.85
71428;BMP280;59246;59.102;37.928;2022-09-09T01:47:17;100917.31;;;5.96
71428;BMP280;59246;59.102;37.928;2022-09-09T01:50:04;100917.09;;;5.98
71428;BMP280;59246;59.102;37.928;2022-09-09T01:52:50;100916.66;;;6.01
71428;BMP280;59246;59.102;37.928;2022-09-09T02:03:56;100925.75;;;6.05
71428;BMP280;59246;59.102;37.928;2022-09-09T02:08:49;100921.53;;;6.04
71428;BMP280;59246;59.102;37.928;2022-09-09T02:11:16;100919.28;;;6.01
71428;BMP280;59246;59.102;37.928;2022-09-09T02:13:43;100923.75;;;6.01
71428;BMP280;59246;59.102;37.928;2022-09-09T02:16:15;100920.13;;;6.02
71428;BMP280;59246;59.102;37.928;2022-09-09T02:18:48;100922.75;;;6.02
71428;BMP280;59246;59.102;37.928;2022-09-09T02:21:15;100925.97;;;6.04
71428;BMP280;59246;59.102;37.928;2022-09-09T02:23:42;100928.78;;;6.09
71428;BMP280;59246;59.102;37.928;2022-09-09T02:26:08;100930.94;;;6.12
71428;BMP280;59246;59.102;37.928;2022-09-09T02:28:34;100933.72;;;6.17
71428;BMP280;59246;59.102;37.928;2022-09-09T02:31:01;100928.84;;;6.21
71428;BMP280;59246;59.102;37.928;2022-09-09T02:33:28;100936.31;;;6.24
71428;BMP280;59246;59.102;37.928;2022-09-09T02:35:55;100936.06;;;6.25
71428;BMP280;59246;59.102;37.928;2022-09-09T02:38:27;100935.63;;;6.28
71428;BMP280;59246;59.102;37.928;2022-09-09T02:40:53;100939.63;;;6.31
71428;BMP280;59246;59.102;37.928;2022-09-09T02:43:19;100933.97;;;6.34
71428;BMP280;59246;59.102;37.928;2022-09-09T02:45:49;100937.75;;;6.38
71428;BMP280;59246;59.102;37.928;2022-09-09T02:50:56;100952.88;;;6.43
71428;BMP280;59246;59.102;37.928;2022-09-09T02:53:30;100937.50;;;6.40
71428;BMP280;59246;59.102;37.928;2022-09-09T02:56:00;100944.63;;;6.39
71428;BMP280;59246;59.102;37.928;2022-09-09T02:58:27;100956.19;;;6.38
71428;BMP280;59246;59.102;37.928;2022-09-09T03:00:53;100951.16;;;6.37
71428;BMP280;59246;59.102;37.928;2022-09-09T03:03:19;100949.78;;;6.34
71428;BMP280;59246;59.102;37.928;2022-09-09T03:05:45;100956.63;;;6.35
71428;BMP280;59246;59.102;37.928;2022-09-09T03:08:10;100959.88;;;6.37
71428;BMP280;59246;59.102;37.928;2022-09-09T03:10:36;100956.78;;;6.40
71428;BMP280;59246;59.102;37.928;2022-09-09T03:13:02;100963.22;;;6.44
71428;BMP280;59246;59.102;37.928;2022-09-09T03:15:29;100956.91;;;6.45
71428;BMP280;59246;59.102;37.928;2022-09-09T03:17:56;100963.16;;;6.51
71428;BMP280;59246;59.102;37.928;2022-09-09T03:20:23;100962.94;;;6.52
71428;BMP280;59246;59.102;37.928;2022-09-09T03:22:48;100965.78;;;6.51
71428;BMP280;59246;59.102;37.928;2022-09-09T03:25:14;100962.38;;;6.50
71428;BMP280;59246;59.102;37.928;2022-09-09T03:27:40;100967.63;;;6.50
71428;BMP280;59246;59.102;37.928;2022-09-09T03:30:05;100966.59;;;6.51
71428;BMP280;59246;59.102;37.928;2022-09-09T03:32:31;100969.22;;;6.51
71428;BMP280;59246;59.102;37.928;2022-09-09T03:34:57;100963.47;;;6.55
71428;BMP280;59246;59.102;37.928;2022-09-09T03:37:22;100972.56;;;6.59
71428;BMP280;59246;59.102;37.928;2022-09-09T03:39:48;100975.38;;;6.64
71428;BMP280;59246;59.102;37.928;2022-09-09T03:42:13;100981.22;;;6.66
71428;BMP280;59246;59.102;37.928;2022-09-09T03:44:39;100977.34;;;6.68
71428;BMP280;59246;59.102;37.928;2022-09-09T03:47:05;100976.06;;;6.71
71428;BMP280;59246;59.102;37.928;2022-09-09T03:49:31;100975.41;;;6.76
71428;BMP280;59246;59.102;37.928;2022-09-09T03:51:57;100975.53;;;6.81
71428;BMP280;59246;59.102;37.928;2022-09-09T03:54:24;100980.72;;;6.87
71428;BMP280;59246;59.102;37.928;2022-09-09T03:56:50;100981.91;;;6.92
71428;BMP280;59246;59.102;37.928;2022-09-09T03:59:15;100984.69;;;6.97
71428;BMP280;59246;59.102;37.928;2022-09-09T04:01:41;100988.25;;;7.02
71428;BMP280;59246;59.102;37.928;2022-09-09T04:04:06;100993.88;;;7.06
71428;BMP280;59246;59.102;37.928;2022-09-09T04:06:32;100994.94;;;7.05
71428;BMP280;59246;59.102;37.928;2022-09-09T04:08:58;101002.03;;;7.04
71428;BMP280;59246;59.102;37.928;2022-09-09T04:11:23;100997.00;;;7.03
71428;BMP280;59246;59.102;37.928;2022-09-09T04:13:49;101003.06;;;7.03
71428;BMP280;59246;59.102;37.928;2022-09-09T04:16:15;100991.72;;;7.03
71428;BMP280;59246;59.102;37.928;2022-09-09T04:18:40;100993.97;;;6.99
71428;BMP280;59246;59.102;37.928;2022-09-09T04:21:06;100995.47;;;6.95
71428;BMP280;59246;59.102;37.928;2022-09-09T04:23:33;100990.03;;;6.90
71428;BMP280;59246;59.102;37.928;2022-09-09T04:25:59;100997.59;;;6.86
71428;BMP280;59246;59.102;37.928;2022-09-09T04:28:26;100991.50;;;6.86
71428;BMP280;59246;59.102;37.928;2022-09-09T04:30:52;100994.53;;;6.89
71428;BMP280;59246;59.102;37.928;2022-09-09T04:33:18;100996.34;;;6.89
71428;BMP280;59246;59.102;37.928;2022-09-09T04:35:47;100995.69;;;6.94
71428;BMP280;59246;59.102;37.928;2022-09-09T04:38:14;100994.78;;;7.00
71428;BMP280;59246;59.102;37.928;2022-09-09T04:40:42;100997.31;;;7.06
71428;BMP280;59246;59.102;37.928;2022-09-09T04:43:08;100995.75;;;7.17
71428;BMP280;59246;59.102;37.928;2022-09-09T04:45:33;100995.53;;;7.31
71428;BMP280;59246;59.102;37.928;2022-09-09T04:47:59;100991.81;;;7.74
71428;BMP280;59246;59.102;37.928;2022-09-09T04:50:24;100994.59;;;8.02
71428;BMP280;59246;59.102;37.928;2022-09-09T04:52:50;100996.88;;;7.99
71428;BMP280;59246;59.102;37.928;2022-09-09T04:55:16;101001.47;;;7.92
71428;BMP280;59246;59.102;37.928;2022-09-09T04:57:41;100997.94;;;7.86
71428;BMP280;59246;59.102;37.928;2022-09-09T05:00:07;101000.09;;;7.77
71428;BMP280;59246;59.102;37.928;2022-09-09T05:02:33;100995.59;;;7.78
71428;BMP280;59246;59.102;37.928;2022-09-09T05:05:02;100991.13;;;7.78
71428;BMP280;59246;59.102;37.928;2022-09-09T05:07:27;101000.59;;;7.86
71428;BMP280;59246;59.102;37.928;2022-09-09T05:09:54;100998.59;;;7.93
71428;BMP280;59246;59.102;37.928;2022-09-09T05:12:19;100994.59;;;8.02
71428;BMP280;59246;59.102;37.928;2022-09-09T05:14:45;100991.50;;;8.06
71428;BMP280;59246;59.102;37.928;2022-09-09T05:17:10;100995.00;;;8.11
71428;BMP280;59246;59.102;37.928;2022-09-09T05:19:36;100995.38;;;8.15
71428;BMP280;59246;59.102;37.928;2022-09-09T05:22:01;100994.47;;;8.21
71428;BMP280;59246;59.102;37.928;2022-09-09T05:24:27;100993.06;;;8.30
71428;BMP280;59246;59.102;37.928;2022-09-09T05:26:52;100989.81;;;8.40
71428;BMP280;59246;59.102;37.928;2022-09-09T05:29:18;100989.19;;;8.50
71428;BMP280;59246;59.102;37.928;2022-09-09T05:31:46;100988.84;;;8.58
71428;BMP280;59246;59.102;37.928;2022-09-09T05:34:15;100995.91;;;8.69
71428;BMP280;59246;59.102;37.928;2022-09-09T05:36:40;100991.94;;;8.84
71428;BMP280;59246;59.102;37.928;2022-09-09T05:39:06;100987.97;;;8.98
71428;BMP280;59246;59.102;37.928;2022-09-09T05:41:31;100992.16;;;9.11
71428;BMP280;59246;59.102;37.928;2022-09-09T05:43:58;100992.09;;;9.23
71428;BMP280;59246;59.102;37.928;2022-09-09T05:46:26;100993.13;;;9.39
71428;BMP280;59246;59.102;37.928;2022-09-09T05:48:52;100988.00;;;9.49
71428;BMP280;59246;59.102;37.928;2022-09-09T05:51:22;100991.81;;;9.75
71428;BMP280;59246;59.102;37.928;2022-09-09T05:53:48;100987.91;;;10.00
71428;BMP280;59246;59.102;37.928;2022-09-09T05:56:15;100995.13;;;10.04
71428;BMP280;59246;59.102;37.928;2022-09-09T05:58:41;100989.03;;;10.04
71428;BMP280;59246;59.102;37.928;2022-09-09T06:01:11;100989.06;;;10.09
71428;BMP280;59246;59.102;37.928;2022-09-09T06:03:37;100994.47;;;10.14
71428;BMP280;59246;59.102;37.928;2022-09-09T06:06:04;100992.84;;;10.13
71428;BMP280;59246;59.102;37.928;2022-09-09T06:08:33;100996.47;;;10.07
71428;BMP280;59246;59.102;37.928;2022-09-09T06:11:03;101007.50;;;9.99
71428;BMP280;59246;59.102;37.928;2022-09-09T06:13:29;101006.03;;;10.08
71428;BMP280;59246;59.102;37.928;2022-09-09T06:15:54;100995.50;;;10.13
71428;BMP280;59246;59.102;37.928;2022-09-09T06:18:20;101000.19;;;10.28
71428;BMP280;59246;59.102;37.928;2022-09-09T06:21:08;100998.75;;;10.42
71428;BMP280;59246;59.102;37.928;2022-09-09T06:23:32;100996.97;;;10.48
71428;BMP280;59246;59.102;37.928;2022-09-09T06:26:04;101008.25;;;10.60
71428;BMP280;59246;59.102;37.928;2022-09-09T06:28:31;100997.75;;;10.71
71428;BMP280;59246;59.102;37.928;2022-09-09T06:31:00;101003.47;;;10.90
71428;BMP280;59246;59.102;37.928;2022-09-09T06:33:26;100997.56;;;11.15
71428;BMP280;59246;59.102;37.928;2022-09-09T06:35:53;101002.16;;;11.24
71428;BMP280;59246;59.102;37.928;2022-09-09T06:38:18;100998.94;;;11.22
71428;BMP280;59246;59.102;37.928;2022-09-09T06:40:50;101001.50;;;11.44
71428;BMP280;59246;59.102;37.928;2022-09-09T06:43:16;101005.66;;;11.73
71428;BMP280;59246;59.102;37.928;2022-09-09T06:45:42;101014.78;;;11.87
71428;BMP280;59246;59.102;37.928;2022-09-09T06:49:05;101014.03;;;11.97
71428;BMP280;59246;59.102;37.928;2022-09-09T06:52:27;101004.78;;;12.15
71428;BMP280;59246;59.102;37.928;2022-09-09T06:55:50;101011.22;;;12.29
71428;BMP280;59246;59.102;37.928;2022-09-09T06:59:12;101010.97;;;12.26
71428;BMP280;59246;59.102;37.928;2022-09-09T07:01:58;101029.81;;;12.19
71428;BMP280;59246;59.102;37.928;2022-09-09T07:08:11;101016.88;;;12.48
71428;BMP280;59246;59.102;37.928;2022-09-09T07:11:41;101012.63;;;12.78
71428;BMP280;59246;59.102;37.928;2022-09-09T07:14:27;101012.13;;;13.12
71428;BMP280;59246;59.102;37.928;2022-09-09T07:16:52;101020.66;;;13.24
71428;BMP280;59246;59.102;37.928;2022-09-09T07:19:18;101016.38;;;13.28
71428;BMP280;59246;59.102;37.928;2022-09-09T07:21:43;101014.75;;;13.27
71428;BMP280;59246;59.102;37.928;2022-09-09T07:24:09;101027.56;;;13.25
71428;BMP280;59246;59.102;37.928;2022-09-09T07:26:36;101027.84;;;13.03
71428;BMP280;59246;59.102;37.928;2022-09-09T07:29:02;101022.22;;;12.84
71428;BMP280;59246;59.102;37.928;2022-09-09T07:31:29;101020.63;;;12.73
71428;BMP280;59246;59.102;37.928;2022-09-09T07:33:55;101025.69;;;12.69
71428;BMP280;59246;59.102;37.928;2022-09-09T07:36:22;101024.09;;;12.68
71428;BMP280;59246;59.102;37.928;2022-09-09T07:38:49;101029.41;;;12.68
71428;BMP280;59246;59.102;37.928;2022-09-09T07:41:17;101019.03;;;12.72
71428;BMP280;59246;59.102;37.928;2022-09-09T07:43:43;101025.94;;;12.73
71428;BMP280;59246;59.102;37.928;2022-09-09T07:46:10;101036.91;;;12.76
71428;BMP280;59246;59.102;37.928;2022-09-09T07:48:35;101033.16;;;12.88
71428;BMP280;59246;59.102;37.928;2022-09-09T07:53:31;101034.50;;;13.21
71428;BMP280;59246;59.102;37.928;2022-09-09T07:56:01;101046.47;;;13.39
71428;BMP280;59246;59.102;37.928;2022-09-09T07:58:27;101028.25;;;13.72
71428;BMP280;59246;59.102;37.928;2022-09-09T08:00:52;101036.72;;;13.99
71428;BMP280;59246;59.102;37.928;2022-09-09T08:03:18;101028.97;;;13.93
71428;BMP280;59246;59.102;37.928;2022-09-09T08:05:43;101043.66;;;13.90
71428;BMP280;59246;59.102;37.928;2022-09-09T08:08:09;101034.59;;;13.91
71428;BMP280;59246;59.102;37.928;2022-09-09T08:10:34;101026.84;;;13.90
71428;BMP280;59246;59.102;37.928;2022-09-09T08:13:00;101038.09;;;13.81
71428;BMP280;59246;59.102;37.928;2022-09-09T08:15:25;101033.59;;;13.77
71428;BMP280;59246;59.102;37.928;2022-09-09T08:17:51;101039.47;;;13.69
71428;BMP280;59246;59.102;37.928;2022-09-09T08:20:16;101033.09;;;13.54
71428;BMP280;59246;59.102;37.928;2022-09-09T08:22:42;101030.19;;;13.40
71428;BMP280;59246;59.102;37.928;2022-09-09T08:25:07;101045.13;;;13.47
71428;BMP280;59246;59.102;37.928;2022-09-09T08:27:33;101039.22;;;13.60
71428;BMP280;59246;59.102;37.928;2022-09-09T08:29:59;101039.97;;;13.71
71428;BMP280;59246;59.102;37.928;2022-09-09T08:32:24;101048.00;;;13.76
71428;BMP280;59246;59.102;37.928;2022-09-09T08:34:51;101052.25;;;13.82
71428;BMP280;59246;59.102;37.928;2022-09-09T08:37:16;101046.13;;;13.76
71428;BMP280;59246;59.102;37.928;2022-09-09T08:39:42;101042.38;;;13.77
71428;BMP280;59246;59.102;37.928;2022-09-09T08:42:21;101048.97;;;13.90
71428;BMP280;59246;59.102;37.928;2022-09-09T08:44:56;101040.44;;;13.98
71428;BMP280;59246;59.102;37.928;2022-09-09T08:47:41;101046.84;;;13.97
71428;BMP280;59246;59.102;37.928;2022-09-09T08:57:54;101042.28;;;14.03
71428;BMP280;59246;59.102;37.928;2022-09-09T09:00:22;101050.34;;;13.93
71428;BMP280;59246;59.102;37.928;2022-09-09T09:03:11;101037.03;;;13.83
71428;BMP280;59246;59.102;37.928;2022-09-09T09:06:04;101045.34;;;13.66
71428;BMP280;59246;59.102;37.928;2022-09-09T09:09:10;101053.09;;;13.52
71428;BMP280;59246;59.102;37.928;2022-09-09T09:11:16;101047.00;;;13.36
71428;BMP280;59246;59.102;37.928;2022-09-09T09:13:46;101042.47;;;13.26
71428;BMP280;59246;59.102;37.928;2022-09-09T09:18:44;101044.09;;;13.01
71428;BMP280;59246;59.102;37.928;2022-09-09T09:21:15;101044.34;;;13.05
71428;BMP280;59246;59.102;37.928;2022-09-09T09:24:05;101041.44;;;13.12
71428;BMP280;59246;59.102;37.928;2022-09-09T09:26:34;101042.50;;;13.11
71428;BMP280;59246;59.102;37.928;2022-09-09T09:29:00;101047.28;;;13.04
71428;BMP280;59246;59.102;37.928;2022-09-09T09:31:28;101036.38;;;13.00
71428;BMP280;59246;59.102;37.928;2022-09-09T09:33:54;101040.09;;;12.94
71428;BMP280;59246;59.102;37.928;2022-09-09T09:36:21;101050.75;;;12.89
71428;BMP280;59246;59.102;37.928;2022-09-09T09:38:58;101042.47;;;12.80
71428;BMP280;59246;59.102;37.928;2022-09-09T09:41:43;101036.06;;;12.76
71428;BMP280;59246;59.102;37.928;2022-09-09T09:47:20;101047.78;;;12.70
71428;BMP280;59246;59.102;37.928;2022-09-09T09:49:56;101048.03;;;12.63
71428;BMP280;59246;59.102;37.928;2022-09-09T09:52:24;101052.81;;;12.56
71428;BMP280;59246;59.102;37.928;2022-09-09T09:54:50;101049.06;;;12.52
71428;BMP280;59246;59.102;37.928;2022-09-09T09:57:17;101039.25;;;12.52
71428;BMP280;59246;59.102;37.928;2022-09-09T09:59:43;101049.63;;;12.59
71428;BMP280;59246;59.102;37.928;2022-09-09T10:02:24;101048.81;;;12.53
71428;BMP280;59246;59.102;37.928;2022-09-09T10:05:04;101050.66;;;12.58
71428;BMP280;59246;59.102;37.928;2022-09-09T10:07:31;101039.00;;;12.69
71428;BMP280;59246;59.102;37.928;2022-09-09T10:09:58;101047.53;;;12.81
71428;BMP280;59246;59.102;37.928;2022-09-09T10:12:27;101047.03;;;12.90
71428;BMP280;59246;59.102;37.928;2022-09-09T10:15:21;101050.50;;;12.95
71428;BMP280;59246;59.102;37.928;2022-09-09T10:38:40;101069.31;;;13.81
71428;BMP280;59246;59.102;37.928;2022-09-09T10:52:24;101062.25;;;14.16
71428;BMP280;59246;59.102;37.928;2022-09-09T10:54:32;101074.78;;;14.15
71428;BMP280;59246;59.102;37.928;2022-09-09T10:57:10;101069.78;;;13.93
71428;BMP280;59246;59.102;37.928;2022-09-09T10:59:44;101055.97;;;13.71
71428;BMP280;59246;59.102;37.928;2022-09-09T11:04:40;101057.41;;;13.48
71428;BMP280;59246;59.102;37.928;2022-09-09T11:07:09;101049.13;;;13.44
71428;BMP280;59246;59.102;37.928;2022-09-09T11:09:47;101051.78;;;13.54
71428;BMP280;59246;59.102;37.928;2022-09-09T11:12:15;101073.84;;;13.75
71428;BMP280;59246;59.102;37.928;2022-09-09T11:14:44;101065.88;;;13.70
71428;BMP280;59246;59.102;37.928;2022-09-09T11:17:15;101056.53;;;13.68
71428;BMP280;59246;59.102;37.928;2022-09-09T11:19:42;101056.19;;;13.95
71428;BMP280;59246;59.102;37.928;2022-09-09T11:27:21;101060.22;;;14.42
71428;BMP280;59246;59.102;37.928;2022-09-09T11:42:35;101068.88;;;15.61
71428;BMP280;59246;59.102;37.928;2022-09-09T11:45:11;101066.00;;;16.00
71428;BMP280;59246;59.102;37.928;2022-09-09T11:47:36;101057.47;;;16.17
71428;BMP280;59246;59.102;37.928;2022-09-09T11:52:37;101055.22;;;16.06
71428;BMP280;59246;59.102;37.928;2022-09-09T11:55:10;101057.50;;;15.74
71428;BMP280;59246;59.102;37.928;2022-09-09T11:57:37;101061.88;;;15.65
71428;BMP280;59246;59.102;37.928;2022-09-09T12:00:04;101054.81;;;15.74
71428;BMP280;59246;59.102;37.928;2022-09-09T12:02:30;101058.97;;;15.86
71428;BMP280;59246;59.102;37.928;2022-09-09T12:04:59;101056.03;;;15.82
71428;BMP280;59246;59.102;37.928;2022-09-09T12:07:33;101051.75;;;16.05
71428;BMP280;59246;59.102;37.928;2022-09-09T12:10:52;101049.94;;;16.38
71428;BMP280;59246;59.102;37.928;2022-09-09T12:12:45;101049.66;;;16.73
71428;BMP280;59246;59.102;37.928;2022-09-09T12:17:44;101056.34;;;16.89
71428;BMP280;59246;59.102;37.928;2022-09-09T12:30:31;101045.19;;;16.68
71428;BMP280;59246;59.102;37.928;2022-09-09T12:33:16;101039.06;;;16.49
71428;BMP280;59246;59.102;37.928;2022-09-09T12:35:43;101041.84;;;16.06
71428;BMP280;59246;59.102;37.928;2022-09-09T12:38:11;101047.75;;;15.59
71428;BMP280;59246;59.102;37.928;2022-09-09T12:40:39;101053.91;;;15.07
71428;BMP280;59246;59.102;37.928;2022-09-09T12:43:17;101042.72;;;14.65
71428;BMP280;59246;59.102;37.928;2022-09-09T12:45:44;101047.66;;;14.48
71428;BMP280;59246;59.102;37.928;2022-09-09T12:48:10;101039.13;;;14.40
71428;BMP280;59246;59.102;37.928;2022-09-09T12:50:37;101048.81;;;14.31
71428;BMP280;59246;59.102;37.928;2022-09-09T12:53:06;101037.03;;;14.37
71428;BMP280;59246;59.102;37.928;2022-09-09T12:55:34;101039.25;;;14.70
71428;BMP280;59246;59.102;37.928;2022-09-09T12:58:03;101030.34;;;15.09
71428;BMP280;59246;59.102;37.928;2022-09-09T13:00:33;101025.59;;;15.54
71428;BMP280;59246;59.102;37.928;2022-09-09T13:02:59;101032.94;;;15.67
71428;BMP280;59246;59.102;37.928;2022-09-09T13:05:27;101034.47;;;15.73
71428;BMP280;59246;59.102;37.928;2022-09-09T13:08:00;101029.31;;;16.01
71428;BMP280;59246;59.102;37.928;2022-09-09T13:10:27;101038.59;;;16.28
71428;BMP280;59246;59.102;37.928;2022-09-09T13:12:54;101033.59;;;16.02
71428;BMP280;59246;59.102;37.928;2022-09-09T13:15:23;101047.88;;;15.92
71428;BMP280;59246;59.102;37.928;2022-09-09T13:17:50;101026.78;;;16.10
71428;BMP280;59246;59.102;37.928;2022-09-09T13:20:18;101023.53;;;17.11
71428;BMP280;59246;59.102;37.928;2022-09-09T13:22:44;101023.97;;;16.72
71428;BMP280;59246;59.102;37.928;2022-09-09T13:27:36;101025.97;;;16.94
71428;BMP280;59246;59.102;37.928;2022-09-09T13:33:00;101032.00;;;17.46
71428;BMP280;59246;59.102;37.928;2022-09-09T13:35:26;101027.03;;;17.39
71428;BMP280;59246;59.102;37.928;2022-09-09T13:37:52;101019.53;;;17.50
71428;BMP280;59246;59.102;37.928;2022-09-09T13:40:19;101020.25;;;18.51
71428;BMP280;59246;59.102;37.928;2022-09-09T13:42:46;101027.63;;;18.77
71428;BMP280;59246;59.102;37.928;2022-09-09T13:45:20;101017.34;;;18.02
71428;BMP280;59246;59.102;37.928;2022-09-09T13:47:45;101017.97;;;17.35
71428;BMP280;59246;59.102;37.928;2022-09-09T13:52:47;101013.03;;;16.16
71428;BMP280;59246;59.102;37.928;2022-09-09T13:55:14;101018.81;;;16.05
71428;BMP280;59246;59.102;37.928;2022-09-09T13:57:49;101018.47;;;16.11
71428;BMP280;59246;59.102;37.928;2022-09-09T14:00:15;101017.22;;;16.04
71428;BMP280;59246;59.102;37.928;2022-09-09T14:02:40;101020.09;;;15.88
71428;BMP280;59246;59.102;37.928;2022-09-09T14:05:06;101019.91;;;15.60
71428;BMP280;59246;59.102;37.928;2022-09-09T14:07:31;101015.19;;;15.28
71428;BMP280;59246;59.102;37.928;2022-09-09T14:09:57;101021.38;;;14.99
71428;BMP280;59246;59.102;37.928;2022-09-09T14:12:23;101012.81;;;14.68
71428;BMP280;59246;59.102;37.928;2022-09-09T14:14:48;101008.97;;;14.40
71428;BMP280;59246;59.102;37.928;2022-09-09T14:17:14;101008.03;;;14.15
71428;BMP280;59246;59.102;37.928;2022-09-09T14:19:40;101011.88;;;14.04
71428;BMP280;59246;59.102;37.928;2022-09-09T14:22:05;101009.25;;;13.94
71428;BMP280;59246;59.102;37.928;2022-09-09T14:24:31;101005.56;;;13.79
71428;BMP280;59246;59.102;37.928;2022-09-09T14:26:57;101022.97;;;13.61
71428;BMP280;59246;59.102;37.928;2022-09-09T14:29:22;101011.53;;;13.51
71428;BMP280;59246;59.102;37.928;2022-09-09T14:31:47;101008.59;;;13.42
71428;BMP280;59246;59.102;37.928;2022-09-09T14:34:13;101014.22;;;13.35
71428;BMP280;59246;59.102;37.928;2022-09-09T14:36:39;101029.97;;;13.21
71428;BMP280;59246;59.102;37.928;2022-09-09T14:39:06;101016.63;;;13.11
71428;BMP280;59246;59.102;37.928;2022-09-09T14:41:32;101007.84;;;13.06
71428;BMP280;59246;59.102;37.928;2022-09-09T14:43:57;101005.47;;;13.09
71428;BMP280;59246;59.102;37.928;2022-09-09T14:46:23;101004.66;;;13.14
71428;BMP280;59246;59.102;37.928;2022-09-09T14:48:49;101004.13;;;13.17
71428;BMP280;59246;59.102;37.928;2022-09-09T14:51:18;101009.97;;;13.14
71428;BMP280;59246;59.102;37.928;2022-09-09T14:53:44;101015.06;;;13.00
71428;BMP280;59246;59.102;37.928;2022-09-09T14:56:12;101010.81;;;12.94
71428;BMP280;59246;59.102;37.928;2022-09-09T14:58:38;101014.25;;;12.94
71428;BMP280;59246;59.102;37.928;2022-09-09T15:01:07;101005.22;;;12.95
71428;BMP280;59246;59.102;37.928;2022-09-09T15:03:35;101005.97;;;13.01
71428;BMP280;59246;59.102;37.928;2022-09-09T15:06:10;101008.66;;;13.06
71428;BMP280;59246;59.102;37.928;2022-09-09T15:08:35;101003.84;;;13.13
71428;BMP280;59246;59.102;37.928;2022-09-09T15:11:02;101015.31;;;13.14
71428;BMP280;59246;59.102;37.928;2022-09-09T15:13:28;101013.72;;;13.08
71428;BMP280;59246;59.102;37.928;2022-09-09T15:15:53;101000.13;;;12.99
71428;BMP280;59246;59.102;37.928;2022-09-09T15:18:19;100997.72;;;13.02
71428;BMP280;59246;59.102;37.928;2022-09-09T15:20:45;101010.25;;;13.02
71428;BMP280;59246;59.102;37.928;2022-09-09T15:23:11;101002.53;;;12.95
71428;BMP280;59246;59.102;37.928;2022-09-09T15:25:37;101000.16;;;12.94
71428;BMP280;59246;59.102;37.928;2022-09-09T15:28:02;101008.91;;;12.89
71428;BMP280;59246;59.102;37.928;2022-09-09T15:30:28;101002.25;;;12.92
71428;BMP280;59246;59.102;37.928;2022-09-09T15:32:53;100999.09;;;12.90
71428;BMP280;59246;59.102;37.928;2022-09-09T15:35:19;101011.31;;;12.80
71428;BMP280;59246;59.102;37.928;2022-09-09T15:37:45;100998.28;;;12.69
71428;BMP280;59246;59.102;37.928;2022-09-09T15:40:11;101005.72;;;12.61
71428;BMP280;59246;59.102;37.928;2022-09-09T15:42:36;101013.66;;;12.56
71428;BMP280;59246;59.102;37.928;2022-09-09T15:45:02;100998.25;;;12.48
71428;BMP280;59246;59.102;37.928;2022-09-09T15:47:28;101005.91;;;12.44
71428;BMP280;59246;59.102;37.928;2022-09-09T15:49:53;101001.16;;;12.41
71428;BMP280;59246;59.102;37.928;2022-09-09T15:52:19;101015.22;;;12.37
71428;BMP280;59246;59.102;37.928;2022-09-09T15:54:44;101002.97;;;12.31
71428;BMP280;59246;59.102;37.928;2022-09-09T15:57:11;101005.31;;;12.22
71428;BMP280;59246;59.102;37.928;2022-09-09T15:59:37;101003.19;;;12.14
71428;BMP280;59246;59.102;37.928;2022-09-09T16:02:03;101023.66;;;12.08
71428;BMP280;59246;59.102;37.928;2022-09-09T16:04:30;101022.53;;;11.99
71428;BMP280;59246;59.102;37.928;2022-09-09T16:06:59;101009.47;;;11.87
71428;BMP280;59246;59.102;37.928;2022-09-09T16:09:25;101017.66;;;11.75
71428;BMP280;59246;59.102;37.928;2022-09-09T16:11:51;101012.81;;;11.67
71428;BMP280;59246;59.102;37.928;2022-09-09T16:14:18;101016.75;;;11.59
71428;BMP280;59246;59.102;37.928;2022-09-09T16:16:44;101023.06;;;11.53
71428;BMP280;59246;59.102;37.928;2022-09-09T16:19:10;101019.06;;;11.45
71428;BMP280;59246;59.102;37.928;2022-09-09T16:21:38;101020.06;;;11.39
71428;BMP280;59246;59.102;37.928;2022-09-09T16:24:06;101013.69;;;11.35
71428;BMP280;59246;59.102;37.928;2022-09-09T16:26:32;101021.09;;;11.33
71428;BMP280;59246;59.102;37.928;2022-09-09T16:28:59;101027.47;;;11.32
71428;BMP280;59246;59.102;37.928;2022-09-09T16:31:25;101029.06;;;11.33
71428;BMP280;59246;59.102;37.928;2022-09-09T16:33:51;101029.63;;;11.35